Time;durP1;ratioP1;P1;durP2;ratioP2;P2;SDS_P1;SDS_P2;PMS_P1;PMS_P2;Temp;Humidity;BMP_temperature;BMP_pressure;BME280_temperature;BME280_humidity;BME280_pressure;Samples;Min_cycle;Max_cycle;Signal;HPM_P1;HPM_P2
2022/11/12 00:00:22;;;;;;;62.93;8.43;;;5.00;99.90;;;;;;5110012;28;20204;-59
2022/11/12 00:02:48;;;;;;;20.50;6.50;;;5.00;99.90;;;;;;5106934;28;20180;-60
2022/11/12 00:05:13;;;;;;;86.47;10.50;;;5.10;99.90;;;;;;5106384;28;20165;-60
2022/11/12 00:07:39;;;;;;;17.20;6.20;;;5.10;99.90;;;;;;5103160;28;20169;-60
2022/11/12 00:10:05;;;;;;;19.37;5.80;;;5.10;99.90;;;;;;5109195;28;20169;-60
2022/11/12 00:12:31;;;;;;;40.27;6.93;;;5.10;99.90;;;;;;5101457;28;20243;-60
2022/11/12 00:14:56;;;;;;;65.63;7.33;;;5.10;99.90;;;;;;5108777;28;20219;-60
2022/11/12 00:17:22;;;;;;;51.03;7.03;;;5.10;99.90;;;;;;5108698;28;20365;-60
2022/11/12 00:19:48;;;;;;;30.90;6.83;;;5.10;99.90;;;;;;5094747;28;20192;-59
2022/11/12 00:22:14;;;;;;;23.93;6.47;;;5.10;99.90;;;;;;5102054;28;20277;-60
2022/11/12 00:24:39;;;;;;;27.17;7.07;;;5.10;99.90;;;;;;5100338;28;20182;-60
2022/11/12 00:27:05;;;;;;;44.10;7.90;;;5.10;99.90;;;;;;5101914;28;20246;-60
2022/11/12 00:29:30;;;;;;;36.53;7.90;;;5.10;99.90;;;;;;5110197;28;20197;-60
2022/11/12 00:31:56;;;;;;;36.37;7.27;;;5.10;99.90;;;;;;5085775;28;20763;-60
2022/11/12 00:34:22;;;;;;;22.87;6.80;;;5.00;99.90;;;;;;5103279;28;20186;-59
2022/11/12 00:36:47;;;;;;;24.67;6.70;;;5.00;99.90;;;;;;5078708;28;20197;-59
2022/11/12 00:39:13;;;;;;;79.03;7.13;;;5.00;99.90;;;;;;5100511;28;20185;-59
2022/11/12 00:41:39;;;;;;;19.13;5.50;;;4.90;99.90;;;;;;5102814;28;20250;-58
2022/11/12 00:44:04;;;;;;;17.20;5.57;;;4.90;99.90;;;;;;5104129;28;20264;-60
2022/11/12 00:46:30;;;;;;;66.07;7.60;;;4.90;99.90;;;;;;5104505;28;20189;-60
2022/11/12 00:48:55;;;;;;;25.73;5.50;;;4.80;99.90;;;;;;5109816;28;20177;-60
2022/11/12 00:51:21;;;;;;;23.77;4.97;;;4.80;99.90;;;;;;5104757;28;20291;-60
2022/11/12 00:53:48;;;;;;;25.03;5.43;;;4.80;99.90;;;;;;5099775;28;20244;-59
2022/11/12 00:56:14;;;;;;;51.10;5.83;;;4.80;99.90;;;;;;5097436;28;20434;-59
2022/11/12 00:58:40;;;;;;;66.77;6.00;;;4.70;99.90;;;;;;5100417;28;20423;-59
2022/11/12 01:01:08;;;;;;;53.67;6.40;;;4.70;99.90;;;;;;5103148;28;20459;-59
2022/11/12 01:03:35;;;;;;;45.97;5.67;;;4.70;99.90;;;;;;5111990;28;20173;-59
2022/11/12 01:06:06;;;;;;;33.37;5.50;;;4.70;99.90;;;;;;5109020;28;20466;-59
2022/11/12 01:08:32;;;;;;;44.10;5.70;;;4.60;99.90;;;;;;5095349;28;20428;-58
2022/11/12 01:11:16;;;;;;;9.50;4.73;;;4.60;99.90;;;;;;5081123;28;20454;-59
2022/11/12 01:13:44;;;;;;;38.23;5.50;;;4.60;99.90;;;;;;5098529;28;20435;-59
2022/11/12 01:16:16;;;;;;;9.17;3.90;;;4.50;99.90;;;;;;5100640;28;20435;-59
2022/11/12 01:18:43;;;;;;;59.73;5.87;;;4.50;99.90;;;;;;5098728;28;20424;-59
2022/11/12 01:21:08;;;;;;;28.73;4.80;;;4.50;99.90;;;;;;5101857;28;20438;-59
2022/11/12 01:23:36;;;;;;;14.83;5.70;;;4.50;99.90;;;;;;5111727;28;20451;-59
2022/11/12 01:26:11;;;;;;;20.27;5.37;;;4.40;99.90;;;;;;5097777;28;20169;-59
2022/11/12 01:28:37;;;;;;;44.07;6.20;;;4.50;99.90;;;;;;5097574;28;20431;-59
2022/11/12 01:31:30;;;;;;;21.00;5.17;;;4.50;99.90;;;;;;5092068;28;20447;-59
2022/11/12 01:33:58;;;;;;;44.37;6.03;;;4.50;99.90;;;;;;5100241;28;20795;-58
2022/11/12 01:36:30;;;;;;;78.93;7.40;;;4.40;99.90;;;;;;5107624;28;20439;-59
2022/11/12 01:38:55;;;;;;;67.33;6.90;;;4.40;99.90;;;;;;5109119;28;20431;-59
2022/11/12 01:41:24;;;;;;;86.93;7.60;;;4.30;99.90;;;;;;5083506;28;20975;-59
2022/11/12 01:44:19;;;;;;;109.37;7.60;;;4.30;99.90;;;;;;5104162;28;20557;-59
2022/11/12 01:47:12;;;;;;;41.23;6.77;;;4.30;99.90;;;;;;5068608;28;20431;-59
2022/11/12 01:49:48;;;;;;;159.33;10.17;;;4.20;99.90;;;;;;5101836;28;21022;-59
2022/11/12 01:52:27;;;;;;;72.53;7.80;;;4.20;99.90;;;;;;5100869;28;20914;-59
2022/11/12 01:54:57;;;;;;;56.70;7.13;;;4.20;99.90;;;;;;5098670;28;21078;-59
2022/11/12 01:57:29;;;;;;;380.23;17.90;;;4.20;99.90;;;;;;5109634;28;20458;-59
2022/11/12 01:59:59;;;;;;;99.13;8.30;;;4.10;99.90;;;;;;5096145;28;20416;-59
2022/11/12 02:02:26;;;;;;;119.73;8.27;;;4.10;99.90;;;;;;5104257;28;20517;-59
2022/11/12 02:04:53;;;;;;;19.90;6.47;;;4.10;99.90;;;;;;5095450;28;20809;-59
2022/11/12 02:07:22;;;;;;;176.37;10.03;;;4.10;99.90;;;;;;5107077;28;20928;-59
2022/11/12 02:09:47;;;;;;;30.67;6.20;;;4.10;99.90;;;;;;5109132;28;21106;-60
2022/11/12 02:13:56;;;;;;;33.87;7.10;;;4.10;99.90;;;;;;5102708;28;20521;-59
2022/11/12 02:14:59;;;;;;;98.00;7.77;;;4.20;99.90;;;;;;5108981;28;20215;-58
2022/11/12 02:17:24;;;;;;;23.47;4.47;;;4.20;99.90;;;;;;5100479;28;20926;-59
2022/11/12 02:19:51;;;;;;;7.90;4.10;;;4.20;99.90;;;;;;5101510;28;20170;-60
2022/11/12 02:22:17;;;;;;;49.17;4.80;;;4.20;99.90;;;;;;5100577;28;20299;-58
2022/11/12 02:24:42;;;;;;;42.23;6.13;;;4.20;99.90;;;;;;5103572;28;20534;-59
2022/11/12 02:27:08;;;;;;;20.20;4.80;;;4.20;99.90;;;;;;5103808;28;20181;-59
2022/11/12 02:29:34;;;;;;;34.93;5.47;;;4.20;99.90;;;;;;5105487;28;20723;-59
2022/11/12 02:32:00;;;;;;;27.03;4.40;;;4.20;99.90;;;;;;5100512;28;20551;-59
2022/11/12 02:34:25;;;;;;;35.47;5.13;;;4.20;99.90;;;;;;5105882;28;20181;-59
2022/11/12 02:36:51;;;;;;;14.43;4.53;;;4.20;99.90;;;;;;5106734;28;20205;-59
2022/11/12 02:39:17;;;;;;;19.27;3.87;;;4.20;99.90;;;;;;5099179;28;20237;-59
2022/11/12 02:41:43;;;;;;;25.17;4.40;;;4.20;99.90;;;;;;5111313;28;20204;-59
2022/11/12 02:44:08;;;;;;;20.33;4.73;;;4.20;99.90;;;;;;5105019;28;20403;-59
2022/11/12 02:46:34;;;;;;;10.13;3.77;;;4.20;99.90;;;;;;5099399;28;20176;-59
2022/11/12 02:49:00;;;;;;;7.07;3.80;;;4.20;99.90;;;;;;5112581;28;20177;-59
2022/11/12 02:51:25;;;;;;;15.43;4.20;;;4.20;99.90;;;;;;5104679;28;20347;-59
2022/11/12 02:53:51;;;;;;;22.87;4.00;;;4.20;99.90;;;;;;5090314;28;20184;-59
2022/11/12 02:56:16;;;;;;;54.67;6.47;;;4.20;99.90;;;;;;5104843;28;20177;-59
2022/11/12 02:58:42;;;;;;;57.60;5.70;;;4.20;99.90;;;;;;5098636;28;20200;-60
2022/11/12 03:01:07;;;;;;;13.60;4.83;;;4.20;99.90;;;;;;5110354;28;20659;-59
2022/11/12 03:03:33;;;;;;;16.03;4.87;;;4.20;99.90;;;;;;5105089;28;20181;-59
2022/11/12 03:06:00;;;;;;;24.20;5.37;;;4.20;99.90;;;;;;5110475;28;20260;-60
2022/11/12 03:08:26;;;;;;;22.43;4.83;;;4.20;99.90;;;;;;5098089;28;20193;-59
2022/11/12 03:10:52;;;;;;;31.27;5.80;;;4.20;99.90;;;;;;5107223;28;20450;-59
2022/11/12 03:13:18;;;;;;;28.83;5.50;;;4.20;99.90;;;;;;5085335;28;20681;-59
2022/11/12 03:15:44;;;;;;;53.77;6.27;;;4.20;99.90;;;;;;5110086;28;20509;-59
2022/11/12 03:18:10;;;;;;;214.00;10.30;;;4.20;99.90;;;;;;5103073;28;20928;-59
2022/11/12 03:20:35;;;;;;;49.30;5.90;;;4.10;99.90;;;;;;5077970;28;20435;-59
2022/11/12 03:23:05;;;;;;;48.80;4.63;;;4.10;99.90;;;;;;5105986;28;20191;-59
2022/11/12 03:25:31;;;;;;;42.37;4.87;;;4.00;99.90;;;;;;5099393;28;20192;-59
2022/11/12 03:28:08;;;;;;;22.73;4.87;;;4.00;99.90;;;;;;5108561;28;20431;-58
2022/11/12 03:30:38;;;;;;;25.00;5.43;;;3.90;99.90;;;;;;5109691;28;20234;-59
2022/11/12 03:33:05;;;;;;;100.77;7.60;;;3.90;99.90;;;;;;5095355;28;20435;-59
2022/11/12 03:35:32;;;;;;;40.53;6.57;;;4.00;99.90;;;;;;5108950;28;20425;-59
2022/11/12 03:37:58;;;;;;;40.30;5.60;;;4.00;99.90;;;;;;5104804;28;20451;-59
2022/11/12 03:40:25;;;;;;;19.70;5.47;;;4.00;99.90;;;;;;5083884;28;20431;-59
2022/11/12 03:42:51;;;;;;;22.97;5.77;;;4.00;99.90;;;;;;5106197;28;20434;-59
2022/11/12 03:45:19;;;;;;;73.70;6.77;;;4.00;99.90;;;;;;5097398;28;20465;-59
2022/11/12 03:47:48;;;;;;;29.63;6.13;;;4.00;99.90;;;;;;5100721;28;20441;-59
2022/11/12 03:50:16;;;;;;;25.33;5.50;;;3.90;99.90;;;;;;5111667;28;21001;-59
2022/11/12 03:52:51;;;;;;;83.40;7.00;;;3.90;99.90;;;;;;5103784;28;20542;-59
2022/11/12 03:55:19;;;;;;;29.43;5.43;;;3.90;99.90;;;;;;5106527;28;20426;-59
2022/11/12 03:57:48;;;;;;;42.77;5.93;;;3.90;99.90;;;;;;5109134;28;21025;-59
2022/11/12 04:00:14;;;;;;;34.13;5.73;;;3.90;99.90;;;;;;5110418;28;21223;-59
2022/11/12 04:02:40;;;;;;;30.77;5.53;;;3.90;99.90;;;;;;5106764;28;20798;-59
2022/11/12 04:10:45;;;;;;;13.47;4.10;;;3.90;99.90;;;;;;5098062;28;20505;-60
2022/11/12 04:13:26;;;;;;;61.20;9.13;;;3.80;99.90;;;;;;5099530;28;21034;-59
2022/11/12 04:21:54;;;;;;;13.03;4.00;;;3.80;99.90;;;;;;5104075;28;20465;-57
2022/11/12 04:27:24;;;;;;;24.83;4.60;;;3.70;99.90;;;;;;5101422;28;20477;-59
2022/11/12 04:32:38;;;;;;;21.70;5.70;;;3.60;99.90;;;;;;5099332;28;20966;-58
2022/11/12 04:35:04;;;;;;;33.10;4.50;;;3.60;99.90;;;;;;5131770;22;20520;-58
2022/11/12 04:37:43;;;;;;;18.83;3.50;;;3.50;99.90;;;;;;5082135;28;20471;-56
2022/11/12 04:45:54;;;;;;;14.23;3.90;;;3.40;99.90;;;;;;5071880;28;20914;-56
2022/11/12 04:48:21;;;;;;;27.67;4.27;;;3.40;99.90;;;;;;5062640;28;20640;-56
2022/11/12 04:50:51;;;;;;;51.07;5.27;;;3.40;99.90;;;;;;5063420;28;20460;-55
2022/11/12 04:53:17;;;;;;;44.50;4.50;;;3.40;99.90;;;;;;5059900;28;20480;-56
2022/11/12 04:55:43;;;;;;;19.20;3.70;;;3.40;99.90;;;;;;5056737;28;20448;-56
2022/11/12 04:58:09;;;;;;;42.70;5.03;;;3.40;99.90;;;;;;5063788;28;20236;-56
2022/11/12 05:00:34;;;;;;;15.97;3.83;;;3.40;99.90;;;;;;5063934;28;20177;-56
2022/11/12 05:03:00;;;;;;;40.33;4.70;;;3.40;99.90;;;;;;5059159;28;20458;-55
2022/11/12 05:05:26;;;;;;;22.80;3.67;;;3.40;99.90;;;;;;5059511;28;20190;-56
2022/11/12 05:07:52;;;;;;;15.33;3.80;;;3.40;99.90;;;;;;5063372;28;20178;-56
2022/11/12 05:10:17;;;;;;;14.83;3.60;;;3.40;99.90;;;;;;5066734;28;20570;-56
2022/11/12 05:12:43;;;;;;;16.93;3.70;;;3.50;99.90;;;;;;5060026;28;20570;-57
2022/11/12 05:15:13;;;;;;;8.00;4.30;;;3.50;99.90;;;;;;5067422;28;20210;-56
2022/11/12 05:17:42;;;;;;;9.27;4.70;;;3.40;99.90;;;;;;5059002;28;20206;-55
2022/11/12 05:20:12;;;;;;;19.73;5.13;;;3.40;99.90;;;;;;5058866;28;20946;-56
2022/11/12 05:22:38;;;;;;;21.37;6.13;;;3.40;99.90;;;;;;5060762;28;20424;-56
2022/11/12 05:25:05;;;;;;;11.73;4.13;;;3.40;99.90;;;;;;5049509;28;20453;-57
2022/11/12 05:27:31;;;;;;;17.23;4.03;;;3.50;99.90;;;;;;5059012;28;20190;-56
2022/11/12 05:29:57;;;;;;;13.80;4.40;;;3.50;99.90;;;;;;5062054;28;20437;-57
2022/11/12 05:32:22;;;;;;;14.00;4.83;;;3.50;99.90;;;;;;5060383;28;20178;-55
2022/11/12 05:34:48;;;;;;;22.17;5.70;;;3.50;99.90;;;;;;5064746;28;20210;-57
2022/11/12 05:37:14;;;;;;;12.07;5.73;;;3.40;99.90;;;;;;5058938;28;20214;-56
2022/11/12 05:39:40;;;;;;;12.83;5.50;;;3.50;99.90;;;;;;5062255;28;20265;-56
2022/11/12 05:42:06;;;;;;;10.57;6.20;;;3.40;99.90;;;;;;5062688;28;20511;-56
2022/11/12 05:44:32;;;;;;;20.30;5.40;;;3.40;99.90;;;;;;5067983;28;20189;-54
2022/11/12 05:46:58;;;;;;;37.17;6.20;;;3.40;99.90;;;;;;5069417;28;20427;-55
2022/11/12 05:49:24;;;;;;;73.13;7.53;;;3.40;99.90;;;;;;5068515;28;20280;-56
2022/11/12 05:51:50;;;;;;;60.70;6.50;;;3.40;99.90;;;;;;5056420;28;20179;-57
2022/11/12 05:54:16;;;;;;;35.87;5.80;;;3.30;99.90;;;;;;5068399;28;20182;-56
2022/11/12 05:56:41;;;;;;;52.13;7.07;;;3.30;99.90;;;;;;5065792;28;21064;-56
2022/11/12 05:59:10;;;;;;;40.60;6.53;;;3.30;99.90;;;;;;5058172;28;20225;-55
2022/11/12 06:01:42;;;;;;;100.43;7.40;;;3.30;99.90;;;;;;5063747;28;20178;-55
2022/11/12 06:04:13;;;;;;;47.80;6.53;;;3.20;99.90;;;;;;5065570;28;20431;-56
2022/11/12 06:06:40;;;;;;;71.67;6.83;;;3.20;99.90;;;;;;5066160;28;20436;-55
2022/11/12 06:09:06;;;;;;;21.30;5.47;;;3.10;99.90;;;;;;5051080;28;20431;-56
2022/11/12 06:11:32;;;;;;;23.63;5.97;;;3.10;99.90;;;;;;5069288;28;20424;-56
2022/11/12 06:13:58;;;;;;;27.00;6.77;;;3.10;99.90;;;;;;5067325;28;20435;-55
2022/11/12 06:16:24;;;;;;;22.10;6.87;;;3.00;99.90;;;;;;5067295;28;20228;-56
2022/11/12 06:18:50;;;;;;;20.33;6.60;;;3.00;99.90;;;;;;5064197;28;20468;-56
2022/11/12 06:21:19;;;;;;;29.67;5.40;;;3.00;99.90;;;;;;5058907;28;20436;-57
2022/11/12 06:23:50;;;;;;;13.93;6.00;;;3.10;99.90;;;;;;5059311;28;20194;-56
2022/11/12 06:26:16;;;;;;;11.50;5.97;;;3.10;99.90;;;;;;5064420;28;20448;-56
2022/11/12 06:28:41;;;;;;;23.50;5.20;;;3.10;99.90;;;;;;5065120;28;21159;-56
2022/11/12 06:31:07;;;;;;;11.17;5.13;;;3.10;99.90;;;;;;5062351;28;20468;-56
2022/11/12 06:33:33;;;;;;;63.40;7.30;;;3.20;99.90;;;;;;5065135;28;20241;-56
2022/11/12 06:36:04;;;;;;;13.53;5.23;;;3.20;99.90;;;;;;5054034;28;20262;-56
2022/11/12 06:38:31;;;;;;;10.40;4.27;;;3.20;99.90;;;;;;5068224;28;20206;-56
2022/11/12 06:40:57;;;;;;;7.10;3.70;;;3.20;99.90;;;;;;5067570;28;20527;-57
2022/11/12 06:43:24;;;;;;;5.90;3.27;;;3.20;99.90;;;;;;5066072;28;20503;-56
2022/11/12 06:45:49;;;;;;;10.50;4.43;;;3.20;99.90;;;;;;5063233;28;20194;-55
2022/11/12 06:48:15;;;;;;;47.03;13.60;;;3.20;99.90;;;;;;5057868;28;20454;-56
2022/11/12 06:50:40;;;;;;;21.83;6.60;;;3.20;99.90;;;;;;5056967;28;20174;-55
2022/11/12 06:53:06;;;;;;;79.57;6.70;;;3.20;99.90;;;;;;5063124;28;20175;-54
2022/11/12 06:55:32;;;;;;;64.50;6.70;;;3.10;99.90;;;;;;5061422;28;20226;-55
2022/11/12 06:57:57;;;;;;;62.37;7.10;;;3.10;99.90;;;;;;5067328;28;20198;-56
2022/11/12 07:00:23;;;;;;;25.50;5.87;;;3.10;99.90;;;;;;5063061;28;20175;-57
2022/11/12 07:02:49;;;;;;;11.57;4.60;;;3.00;99.90;;;;;;5055024;28;20175;-56
2022/11/12 07:05:15;;;;;;;27.10;5.30;;;3.00;99.90;;;;;;5065740;28;20622;-55
2022/11/12 07:07:40;;;;;;;25.43;5.77;;;3.00;99.90;;;;;;5062478;28;20254;-55
2022/11/12 07:10:06;;;;;;;10.20;5.27;;;3.00;99.90;;;;;;5064976;28;20220;-56
2022/11/12 07:12:32;;;;;;;38.00;5.47;;;3.00;99.90;;;;;;5069652;28;20177;-55
2022/11/12 07:14:58;;;;;;;58.30;7.00;;;3.00;99.90;;;;;;5069263;28;20974;-55
2022/11/12 07:17:24;;;;;;;18.47;4.47;;;3.00;99.90;;;;;;5070617;28;20323;-54
2022/11/12 07:19:49;;;;;;;131.80;8.37;;;3.10;99.90;;;;;;5060219;28;20179;-54
2022/11/12 07:22:15;;;;;;;16.00;4.37;;;3.10;99.90;;;;;;5055399;28;20428;-56
2022/11/12 07:24:41;;;;;;;20.03;4.53;;;3.10;99.90;;;;;;5063289;28;20172;-55
2022/11/12 07:27:06;;;;;;;17.80;4.27;;;3.10;99.90;;;;;;5065989;28;20648;-58
2022/11/12 07:29:32;;;;;;;9.93;3.87;;;3.20;99.90;;;;;;5058651;28;20229;-58
2022/11/12 07:31:58;;;;;;;13.03;3.70;;;3.10;99.90;;;;;;5058910;28;20669;-58
2022/11/12 07:34:24;;;;;;;11.20;3.00;;;3.10;99.90;;;;;;5059834;28;20190;-56
2022/11/12 07:36:50;;;;;;;6.47;3.13;;;3.10;99.90;;;;;;5059064;28;20221;-55
2022/11/12 07:39:17;;;;;;;42.27;4.03;;;3.10;99.90;;;;;;5060248;28;20954;-55
2022/11/12 07:41:43;;;;;;;24.67;4.30;;;3.20;99.90;;;;;;5062285;28;20525;-55
2022/11/12 07:44:09;;;;;;;17.93;4.00;;;3.20;99.90;;;;;;5063988;28;20491;-56
2022/11/12 07:46:34;;;;;;;32.57;4.07;;;3.30;99.90;;;;;;5070688;28;20226;-54
2022/11/12 07:49:00;;;;;;;48.77;4.63;;;3.30;99.90;;;;;;5066808;28;20175;-57
2022/11/12 07:51:28;;;;;;;66.87;5.97;;;3.30;99.90;;;;;;5066957;28;20173;-56
2022/11/12 07:53:56;;;;;;;26.37;4.70;;;3.40;99.90;;;;;;5064619;28;20637;-58
2022/11/12 07:56:23;;;;;;;60.97;5.30;;;3.30;99.90;;;;;;5062817;28;20447;-57
2022/11/12 07:58:49;;;;;;;3.60;3.30;;;3.30;99.90;;;;;;5064308;28;21045;-56
2022/11/12 08:01:21;;;;;;;12.30;3.70;;;3.30;99.90;;;;;;5067720;28;20835;-57
2022/11/12 08:03:47;;;;;;;33.67;4.33;;;3.40;99.90;;;;;;5061195;28;20467;-57
2022/11/12 08:06:13;;;;;;;5.80;3.80;;;3.40;99.90;;;;;;5062613;28;22144;-57
2022/11/12 08:08:38;;;;;;;25.63;4.50;;;3.40;99.90;;;;;;5069082;28;20186;-57
2022/11/12 08:11:04;;;;;;;8.07;3.60;;;3.50;99.90;;;;;;5065375;28;20216;-56
2022/11/12 08:13:30;;;;;;;33.60;4.57;;;3.50;99.90;;;;;;5061321;28;20193;-57
2022/11/12 08:15:57;;;;;;;22.37;4.47;;;3.60;99.90;;;;;;5060178;28;20924;-55
2022/11/12 08:18:23;;;;;;;14.13;4.77;;;3.60;99.90;;;;;;5060701;28;20506;-56
2022/11/12 08:20:49;;;;;;;13.33;5.13;;;3.70;99.90;;;;;;5059089;28;20450;-56
2022/11/12 08:23:15;;;;;;;11.27;4.00;;;3.70;99.90;;;;;;5061162;28;20899;-52
2022/11/12 08:25:41;;;;;;;18.73;4.10;;;3.70;99.90;;;;;;5058345;28;20999;-54
2022/11/12 08:28:06;;;;;;;29.00;5.47;;;3.70;99.90;;;;;;5061711;28;20182;-53
2022/11/12 08:30:32;;;;;;;11.13;4.53;;;3.80;99.90;;;;;;5055895;28;20289;-52
2022/11/12 08:33:03;;;;;;;11.70;4.77;;;3.80;99.90;;;;;;5056938;28;20262;-55
2022/11/12 08:35:30;;;;;;;9.03;5.27;;;3.80;99.90;;;;;;5056323;28;20237;-52
2022/11/12 08:38:00;;;;;;;13.57;5.67;;;3.90;99.90;;;;;;5057764;28;20456;-52
2022/11/12 08:40:27;;;;;;;16.40;5.37;;;3.90;99.90;;;;;;5058821;28;20421;-53
2022/11/12 08:43:02;;;;;;;35.10;5.87;;;4.00;99.90;;;;;;5065570;28;20938;-51
2022/11/12 08:45:30;;;;;;;18.07;5.97;;;4.00;99.90;;;;;;5062092;28;20833;-53
2022/11/12 08:48:00;;;;;;;31.87;5.27;;;4.00;99.90;;;;;;5064452;28;20958;-54
2022/11/12 08:50:26;;;;;;;23.47;6.80;;;4.00;99.90;;;;;;5065800;28;21420;-56
2022/11/12 08:52:51;;;;;;;13.93;5.10;;;4.00;99.90;;;;;;5065974;28;20953;-55
2022/11/12 08:55:17;;;;;;;42.27;6.23;;;4.00;99.90;;;;;;5055727;28;20449;-52
2022/11/12 08:57:44;;;;;;;18.07;5.47;;;4.00;99.90;;;;;;5058258;28;20205;-54
2022/11/12 09:00:13;;;;;;;19.43;5.50;;;4.00;99.90;;;;;;5060905;28;20655;-52
2022/11/12 09:02:38;;;;;;;10.57;4.80;;;4.00;99.90;;;;;;5067551;28;20447;-53
2022/11/12 09:05:05;;;;;;;9.50;4.77;;;4.10;99.90;;;;;;5063666;28;20449;-52
2022/11/12 09:07:31;;;;;;;7.70;4.40;;;4.20;99.90;;;;;;5057616;28;20233;-54
2022/11/12 09:09:57;;;;;;;5.80;3.47;;;4.20;99.90;;;;;;5063671;28;20535;-54
2022/11/12 09:12:23;;;;;;;7.80;4.07;;;4.20;99.90;;;;;;5062454;28;20519;-53
2022/11/12 09:14:49;;;;;;;4.30;3.20;;;4.30;99.90;;;;;;5063111;28;20257;-54
2022/11/12 09:17:14;;;;;;;5.20;3.93;;;4.30;99.90;;;;;;5068753;28;20491;-53
2022/11/12 09:19:41;;;;;;;7.50;3.87;;;4.40;99.90;;;;;;5069948;28;20427;-53
2022/11/12 09:22:07;;;;;;;8.70;4.40;;;4.50;99.90;;;;;;5059751;28;20176;-53
2022/11/12 09:24:32;;;;;;;5.37;4.23;;;4.50;99.90;;;;;;5064651;28;21723;-53
2022/11/12 09:26:58;;;;;;;5.30;3.80;;;4.60;99.90;;;;;;5060619;28;20186;-54
2022/11/12 09:29:24;;;;;;;7.73;4.57;;;4.70;99.90;;;;;;5056768;28;20182;-56
2022/11/12 09:31:50;;;;;;;7.67;4.97;;;4.80;99.90;;;;;;5063143;28;20197;-57
2022/11/12 09:34:15;;;;;;;6.20;4.77;;;4.90;99.90;;;;;;5060383;28;20189;-55
2022/11/12 09:36:41;;;;;;;8.23;5.23;;;4.90;99.90;;;;;;5061793;28;20210;-55
2022/11/12 09:39:07;;;;;;;6.07;4.37;;;5.00;99.90;;;;;;5058868;28;20269;-59
2022/11/12 09:41:40;;;;;;;8.80;5.70;;;5.00;99.90;;;;;;5065526;28;20175;-55
2022/11/12 09:44:10;;;;;;;7.53;5.00;;;5.10;99.90;;;;;;5059590;28;20170;-56
2022/11/12 09:46:41;;;;;;;9.50;5.30;;;5.20;99.90;;;;;;5059964;28;21117;-58
2022/11/12 09:49:22;;;;;;;8.73;5.90;;;5.30;99.90;;;;;;5063055;28;21289;-54
2022/11/12 09:51:54;;;;;;;9.53;5.00;;;5.30;99.90;;;;;;5064315;28;20448;-55
2022/11/12 09:54:29;;;;;;;7.00;4.77;;;5.30;99.90;;;;;;5063185;28;20425;-55
2022/11/12 09:56:55;;;;;;;9.00;5.87;;;5.40;99.90;;;;;;5060657;28;21018;-56
2022/11/12 09:59:25;;;;;;;7.67;5.20;;;5.60;99.90;;;;;;5062092;28;20433;-58
2022/11/12 10:02:29;;;;;;;9.10;4.97;;;5.60;99.90;;;;;;5061984;28;20224;-58
2022/11/12 10:05:06;;;;;;;6.90;4.87;;;5.70;99.90;;;;;;5063065;28;20456;-55
2022/11/12 10:07:43;;;;;;;6.67;5.43;;;5.70;99.90;;;;;;5065000;28;20929;-56
2022/11/12 10:10:15;;;;;;;7.17;5.37;;;5.80;99.90;;;;;;5063092;28;20554;-57
2022/11/12 10:13:06;;;;;;;7.67;5.20;;;5.80;99.90;;;;;;5061335;28;20829;-56
2022/11/12 10:18:36;;;;;;;8.30;5.13;;;6.10;99.90;;;;;;5060505;28;20480;-55
2022/11/12 10:21:21;;;;;;;6.57;5.30;;;6.30;99.90;;;;;;5060978;28;20429;-54
2022/11/12 10:23:52;;;;;;;9.07;5.93;;;6.50;99.90;;;;;;5060803;28;20186;-54
2022/11/12 10:26:20;;;;;;;8.17;5.80;;;6.60;99.90;;;;;;5059092;28;20444;-54
2022/11/12 10:28:51;;;;;;;7.57;4.73;;;6.70;99.90;;;;;;5058319;28;20926;-56
2022/11/12 10:31:19;;;;;;;7.23;5.80;;;6.90;99.90;;;;;;5062919;28;20504;-56
2022/11/12 10:33:45;;;;;;;7.00;5.27;;;7.00;99.90;;;;;;5057213;28;20413;-57
2022/11/12 10:36:30;;;;;;;7.43;5.43;;;7.10;99.90;;;;;;5058714;28;21045;-57
2022/11/12 10:38:56;;;;;;;6.93;4.70;;;7.20;99.90;;;;;;5043300;28;20641;-61
2022/11/12 10:41:23;;;;;;;7.60;5.30;;;7.30;99.90;;;;;;5060272;28;20428;-55
2022/11/12 10:43:59;;;;;;;11.50;5.47;;;7.30;99.90;;;;;;5061966;28;20170;-58
2022/11/12 10:46:26;;;;;;;9.07;6.07;;;7.30;99.90;;;;;;5062391;28;20440;-56
2022/11/12 10:49:06;;;;;;;12.97;7.20;;;7.30;99.90;;;;;;5066688;28;20429;-55
2022/11/12 10:51:35;;;;;;;11.20;6.30;;;7.40;99.90;;;;;;5064105;28;20421;-57
2022/11/12 10:54:25;;;;;;;12.17;7.30;;;7.40;99.90;;;;;;5063033;28;20803;-55
2022/11/12 10:56:51;;;;;;;11.07;7.10;;;7.40;99.90;;;;;;5059490;28;20537;-57
2022/11/12 10:59:23;;;;;;;12.07;6.67;;;7.40;99.90;;;;;;5066244;28;20433;-55
2022/11/12 11:01:57;;;;;;;8.97;6.30;;;7.50;99.90;;;;;;5043428;28;20182;-56
2022/11/12 11:04:36;;;;;;;9.93;6.50;;;7.70;99.90;;;;;;5051326;28;20850;-57
2022/11/12 11:07:17;;;;;;;10.47;6.57;;;7.90;99.90;;;;;;5062672;28;20524;-56
2022/11/12 11:09:55;;;;;;;9.37;6.40;;;8.10;99.90;;;;;;5061240;28;20909;-56
2022/11/12 11:12:26;;;;;;;12.97;7.30;;;8.30;99.90;;;;;;5065835;28;20528;-58
2022/11/12 11:15:16;;;;;;;10.83;6.70;;;8.50;99.90;;;;;;5064099;28;20452;-57
2022/11/12 11:17:42;;;;;;;9.17;6.10;;;8.70;99.90;;;;;;5060049;28;20464;-56
2022/11/12 11:20:31;;;;;;;8.73;6.70;;;8.70;99.90;;;;;;5045092;28;20426;-57
2022/11/12 11:23:24;;;;;;;11.43;6.60;;;8.80;99.90;;;;;;5062705;28;20187;-55
2022/11/12 11:25:53;;;;;;;8.73;6.93;;;8.90;99.90;;;;;;5062391;28;20828;-54
2022/11/12 11:28:34;;;;;;;11.17;6.40;;;9.00;99.90;;;;;;5062592;28;20432;-58
2022/11/12 11:31:00;;;;;;;9.03;6.27;;;9.10;99.90;;;;;;5062743;28;20536;-57
2022/11/12 11:33:58;;;;;;;9.83;6.93;;;9.10;99.90;;;;;;5064179;28;20581;-64
2022/11/12 11:36:46;;;;;;;12.70;8.10;;;9.10;99.90;;;;;;5065495;28;20221;-55
2022/11/12 11:39:27;;;;;;;16.90;10.70;;;9.20;99.90;;;;;;5062396;28;20436;-54
2022/11/12 11:42:31;;;;;;;13.00;8.10;;;9.20;99.90;;;;;;5066032;28;20428;-55
2022/11/12 11:45:16;;;;;;;11.53;7.90;;;9.20;99.90;;;;;;5036705;28;20903;-55
2022/11/12 11:47:47;;;;;;;12.83;7.87;;;9.30;99.90;;;;;;5061381;28;20440;-57
2022/11/12 11:50:34;;;;;;;13.57;8.77;;;9.40;99.90;;;;;;5064367;28;20409;-56
2022/11/12 11:53:11;;;;;;;16.10;8.43;;;9.40;99.90;;;;;;5064251;28;20425;-57
2022/11/12 11:55:43;;;;;;;10.73;7.60;;;9.50;99.90;;;;;;5061070;28;20447;-56
2022/11/12 11:58:21;;;;;;;15.77;9.20;;;9.60;99.90;;;;;;5051452;28;20787;-56
2022/11/12 12:01:08;;;;;;;13.63;8.53;;;9.70;99.90;;;;;;5058327;28;20416;-56
2022/11/12 12:04:02;;;;;;;14.90;8.03;;;9.80;99.90;;;;;;5064089;28;20412;-61
2022/11/12 12:06:31;;;;;;;12.33;7.83;;;9.80;99.90;;;;;;5062635;28;20445;-56
2022/11/12 12:09:16;;;;;;;12.70;8.53;;;9.90;99.90;;;;;;5062704;28;20412;-59
2022/11/12 12:12:03;;;;;;;13.07;9.00;;;9.80;99.90;;;;;;5058970;28;20416;-56
2022/11/12 12:14:36;;;;;;;15.37;8.63;;;9.80;99.90;;;;;;5060816;28;20433;-56
2022/11/12 12:17:22;;;;;;;13.70;8.80;;;9.80;99.90;;;;;;5059572;28;20527;-55
2022/11/12 12:19:59;;;;;;;13.57;8.23;;;9.70;99.90;;;;;;5060552;28;20424;-53
2022/11/12 12:22:43;;;;;;;12.80;8.70;;;9.70;99.90;;;;;;5062458;28;20428;-56
2022/11/12 12:25:12;;;;;;;15.40;9.03;;;9.70;99.90;;;;;;5058961;28;20481;-55
2022/11/12 12:27:48;;;;;;;14.33;9.87;;;9.80;99.90;;;;;;5062351;28;20474;-57
2022/11/12 12:30:23;;;;;;;15.37;9.47;;;9.80;99.90;;;;;;5064253;28;20428;-54
2022/11/12 12:33:10;;;;;;;18.00;10.00;;;9.90;99.90;;;;;;5063459;28;20424;-55
2022/11/12 12:35:47;;;;;;;16.13;9.70;;;9.90;99.90;;;;;;5061863;28;20510;-56
2022/11/12 12:38:17;;;;;;;21.27;10.13;;;10.00;99.90;;;;;;5061012;28;20464;-55
2022/11/12 12:40:50;;;;;;;14.20;9.40;;;10.00;99.90;;;;;;5061750;28;20421;-55
2022/11/12 12:43:19;;;;;;;14.27;8.60;;;10.10;99.90;;;;;;5061545;28;20609;-58
2022/11/12 12:45:46;;;;;;;12.00;7.90;;;10.10;99.90;;;;;;5058020;28;20435;-55
2022/11/12 12:48:26;;;;;;;13.60;9.77;;;10.20;99.90;;;;;;5059674;28;20486;-57
2022/11/12 12:50:52;;;;;;;14.30;8.70;;;10.20;99.90;;;;;;5059342;28;20958;-54
2022/11/12 12:53:21;;;;;;;17.57;9.33;;;10.30;99.90;;;;;;5059771;28;20424;-56
2022/11/12 12:55:47;;;;;;;16.57;10.60;;;10.30;99.90;;;;;;5060690;28;20865;-55
2022/11/12 12:58:36;;;;;;;17.47;10.67;;;10.40;99.90;;;;;;5060653;28;20507;-54
2022/11/12 13:01:20;;;;;;;13.80;9.43;;;10.40;99.90;;;;;;5051504;28;20953;-55
2022/11/12 13:04:02;;;;;;;14.80;9.00;;;10.40;99.90;;;;;;5058370;28;20501;-53
2022/11/12 13:06:58;;;;;;;14.90;8.63;;;10.50;99.90;;;;;;5059634;28;20437;-56
2022/11/12 13:09:25;;;;;;;14.53;9.87;;;10.50;99.90;;;;;;5059454;28;20441;-56
2022/11/12 13:14:33;;;;;;;14.70;9.70;;;10.50;99.90;;;;;;5062599;28;20428;-55
2022/11/12 13:17:03;;;;;;;12.93;9.37;;;10.60;99.90;;;;;;5057719;28;20441;-54
2022/11/12 13:19:53;;;;;;;14.03;8.63;;;10.60;99.90;;;;;;5058286;28;20968;-62
2022/11/12 13:22:18;;;;;;;17.67;10.37;;;10.60;99.90;;;;;;5060972;28;20430;-54
2022/11/12 13:25:15;;;;;;;16.90;10.53;;;10.50;99.90;;;;;;5059840;28;20420;-57
2022/11/12 13:27:44;;;;;;;14.73;10.10;;;10.50;99.90;;;;;;5062890;28;20235;-58
2022/11/12 13:30:12;;;;;;;17.10;10.00;;;10.50;99.90;;;;;;5063019;28;20458;-57